Atchison, Kansas
Current Conditions -  °F | °C
As of 1:17 AM on Friday 31 Oct 2014 (Local Time) from KSTJ Reporting Station
Overcast Overcast  
Wind Chill: 10°   Ceiling: 2900
Heat Index: 10°   Visibility: 10mi
Dew Point:   Wind: 23mph
Humidity: 68%   Direction: 350°N
Pressure: 30.28"   Gusts: 30mph
Location:  39.56°N, 95.13°W
Report Text: KSTJ 310617Z AUTO 35020G26KT 10SM OVC029 10/04 A3028 RMK AO2 PK WND 36026/0612 T01000044
Loading
Personal Weather Stations






























Interactive Weather Map
Tropical Storm Tracking
New forecast layout! Learn more

10-Day Weather Forecast

Advertisements
Track Severe Weather on mobile